Minerva Virgo — SXXT — position and weather

sailwx.info

Track history (hours):
 
Tides and Currents Weather Stations Pressure Air Temp Water Temp Dewpoint Dewpoint Depression Visibility Wind Speed Wind Dir Waves Ship Positions

Minerva Virgo

Last reported at 2016-Aug-18 23:22 UTC. Time now 2016-Aug-24 11:53 UTC.
Position N 46°15' W 072°44'.

Length 182 m; draft 8 m.

Type: Ship (hazmat cat C). MMSI: 240730000.

Date/timePositionNaut miles runAvg speedWind from/ knotsBaromVisibWave heightAir tempDewpointWater temp
2016-Aug-18 23:22N 46°15' W 072°44'1113.1
2016-Aug-18 22:34N 46°09' W 072°57'1212.1
2016-Aug-18 21:33N 46°01' W 073°10'1313.3
2016-Aug-18 20:34N 45°49' W 073°19'1313.0
2016-Aug-18 19:33N 45°38' W 073°29'  
2016-Aug-15 16:03N 45°37' W 073°30'0 0.0
2016-Aug-14 02:13N 45°37' W 073°30'0 0.4
2016-Aug-14 01:33N 45°38' W 073°30'1 1.2
2016-Aug-14 00:32N 45°39' W 073°29'0 0.0
2016-Aug-13 23:29N 45°39' W 073°29'0 0.0
2016-Aug-13 22:29N 45°39' W 073°29'0 0.0
2016-Aug-13 21:29N 45°39' W 073°29'0 0.0
2016-Aug-13 20:29N 45°39' W 073°29'0 0.0
2016-Aug-13 19:32N 45°39' W 073°29'0 0.0
2016-Aug-13 18:29N 45°39' W 073°29'0 0.3
2016-Aug-13 17:33N 45°39' W 073°29'6 6.4
2016-Aug-13 16:34N 45°44' W 073°24'8 7.5
2016-Aug-13 15:33N 45°50' W 073°17'7 7.2
2016-Aug-13 14:33N 45°57' W 073°13'4 4.4
2016-Aug-13 13:32N 46°01' W 073°10'0 0.0
2016-Aug-13 12:32N 46°01' W 073°10'0 0.0
2016-Aug-13 11:32N 46°01' W 073°10'0 0.0
2016-Aug-13 10:32N 46°01' W 073°10'0 0.0
2016-Aug-13 09:32N 46°01' W 073°10'0 0.0
2016-Aug-13 08:32N 46°01' W 073°10'0 0.0
2016-Aug-13 07:32N 46°01' W 073°10'0 0.0
2016-Aug-13 06:32N 46°01' W 073°10'0 0.0
2016-Aug-13 05:26N 46°01' W 073°10'0 0.0
2016-Aug-13 04:32N 46°01' W 073°10'0 0.0
2016-Aug-13 03:32N 46°01' W 073°10'0 0.0
2016-Aug-13 02:32N 46°01' W 073°10'0 0.0
2016-Aug-13 01:32N 46°01' W 073°10'0 0.0
2016-Aug-13 00:32N 46°01' W 073°10'0 0.0
2016-Aug-12 23:26N 46°01' W 073°10'0 0.0
2016-Aug-12 22:32N 46°01' W 073°10'0 0.0
2016-Aug-12 21:32N 46°01' W 073°10'0 0.0
2016-Aug-12 20:32N 46°01' W 073°10'0 0.0
2016-Aug-12 19:32N 46°01' W 073°10'0 0.0
2016-Aug-12 18:32N 46°01' W 073°10'0 0.0
2016-Aug-12 17:32N 46°01' W 073°10'0 0.0
2016-Aug-12 16:32N 46°01' W 073°10'0 0.0
2016-Aug-12 15:32N 46°01' W 073°10'0 0.0
2016-Aug-12 14:32N 46°01' W 073°10'0 0.0
2016-Aug-12 13:32N 46°01' W 073°10'0 0.0
2016-Aug-12 12:32N 46°01' W 073°10'0 0.0
2016-Aug-12 11:32N 46°01' W 073°10'0 0.0
2016-Aug-12 10:32N 46°01' W 073°10'0 0.0
2016-Aug-12 09:26N 46°01' W 073°10'0 0.0
2016-Aug-12 08:32N 46°01' W 073°10'0 0.0
2016-Aug-12 07:32N 46°01' W 073°10'0 0.0
2016-Aug-12 06:32N 46°01' W 073°10'0 0.0
2016-Aug-12 05:32N 46°01' W 073°10'0 0.0
2016-Aug-12 04:32N 46°01' W 073°10'0 0.0
2016-Aug-12 03:32N 46°01' W 073°10'0 0.0
2016-Aug-12 02:26N 46°01' W 073°10'0 0.0
2016-Aug-12 01:32N 46°01' W 073°10'0 0.0
2016-Aug-12 00:32N 46°01' W 073°10'0 0.0
2016-Aug-11 23:32N 46°01' W 073°10'0 0.0
2016-Aug-11 22:32N 46°01' W 073°10'0 0.0
2016-Aug-11 21:26N 46°01' W 073°10'0 0.0
2016-Aug-11 20:32N 46°01' W 073°10'0 0.0
2016-Aug-11 19:32N 46°01' W 073°10'0 0.0
2016-Aug-11 18:32N 46°01' W 073°10'0 0.0
2016-Aug-11 17:26N 46°01' W 073°10'0 0.0
2016-Aug-11 16:32N 46°01' W 073°10'0 0.0
2016-Aug-11 15:32N 46°01' W 073°10'0 0.0
2016-Aug-11 14:32N 46°01' W 073°10'0 0.0
2016-Aug-11 13:32N 46°01' W 073°10'0 0.0
2016-Aug-11 12:32N 46°01' W 073°10'0 0.0
2016-Aug-11 11:32N 46°01' W 073°10'0 0.0
2016-Aug-11 10:32N 46°01' W 073°10'0 0.0
2016-Aug-11 09:32N 46°01' W 073°10'0 0.0
2016-Aug-11 08:32N 46°01' W 073°10'0 0.0
2016-Aug-11 07:32N 46°01' W 073°10'0 0.0
2016-Aug-11 06:32N 46°01' W 073°10'0 0.0
2016-Aug-11 05:26N 46°01' W 073°10'0 0.0
2016-Aug-11 04:26N 46°01' W 073°10'0 0.0
2016-Aug-11 03:32N 46°01' W 073°10'0 0.4
2016-Aug-11 02:33N 46°01' W 073°10'5 5.0
2016-Aug-11 01:33N 46°04' W 073°04'8 7.8
2016-Aug-11 00:33N 46°09' W 072°57'  
Track history (hours):
 
Tides and Currents Weather Stations Pressure Air Temp Water Temp Dewpoint Dewpoint Depression Visibility Wind Speed Wind Dir Waves Ship Positions

Minerva Virgo

Last reported at 2016-Aug-18 23:22 UTC. Time now 2016-Aug-24 11:53 UTC.
Position N 46°15' W 072°44'.

Length 182 m; draft 8 m.

Type: Ship (hazmat cat C). MMSI: 240730000.

Date/timePositionNaut miles runAvg speedWind from/ knotsBaromVisibWave heightAir tempDewpointWater temp
2016-Aug-18 23:22N 46°15' W 072°44'1113.1
2016-Aug-18 22:34N 46°09' W 072°57'1212.1
2016-Aug-18 21:33N 46°01' W 073°10'1313.3
2016-Aug-18 20:34N 45°49' W 073°19'1313.0
2016-Aug-18 19:33N 45°38' W 073°29'  
2016-Aug-15 16:03N 45°37' W 073°30'0 0.0
2016-Aug-14 02:13N 45°37' W 073°30'0 0.4
2016-Aug-14 01:33N 45°38' W 073°30'1 1.2
2016-Aug-14 00:32N 45°39' W 073°29'0 0.0
2016-Aug-13 23:29N 45°39' W 073°29'0 0.0
2016-Aug-13 22:29N 45°39' W 073°29'0 0.0
2016-Aug-13 21:29N 45°39' W 073°29'0 0.0
2016-Aug-13 20:29N 45°39' W 073°29'0 0.0
2016-Aug-13 19:32N 45°39' W 073°29'0 0.0
2016-Aug-13 18:29N 45°39' W 073°29'0 0.3
2016-Aug-13 17:33N 45°39' W 073°29'6 6.4
2016-Aug-13 16:34N 45°44' W 073°24'8 7.5
2016-Aug-13 15:33N 45°50' W 073°17'7 7.2
2016-Aug-13 14:33N 45°57' W 073°13'4 4.4
2016-Aug-13 13:32N 46°01' W 073°10'0 0.0
2016-Aug-13 12:32N 46°01' W 073°10'0 0.0
2016-Aug-13 11:32N 46°01' W 073°10'0 0.0
2016-Aug-13 10:32N 46°01' W 073°10'0 0.0
2016-Aug-13 09:32N 46°01' W 073°10'0 0.0
2016-Aug-13 08:32N 46°01' W 073°10'0 0.0
2016-Aug-13 07:32N 46°01' W 073°10'0 0.0
2016-Aug-13 06:32N 46°01' W 073°10'0 0.0
2016-Aug-13 05:26N 46°01' W 073°10'0 0.0
2016-Aug-13 04:32N 46°01' W 073°10'0 0.0
2016-Aug-13 03:32N 46°01' W 073°10'0 0.0
2016-Aug-13 02:32N 46°01' W 073°10'0 0.0
2016-Aug-13 01:32N 46°01' W 073°10'0 0.0
2016-Aug-13 00:32N 46°01' W 073°10'0 0.0
2016-Aug-12 23:26N 46°01' W 073°10'0 0.0
2016-Aug-12 22:32N 46°01' W 073°10'0 0.0
2016-Aug-12 21:32N 46°01' W 073°10'0 0.0
2016-Aug-12 20:32N 46°01' W 073°10'0 0.0
2016-Aug-12 19:32N 46°01' W 073°10'0 0.0
2016-Aug-12 18:32N 46°01' W 073°10'0 0.0
2016-Aug-12 17:32N 46°01' W 073°10'0 0.0
2016-Aug-12 16:32N 46°01' W 073°10'0 0.0
2016-Aug-12 15:32N 46°01' W 073°10'0 0.0
2016-Aug-12 14:32N 46°01' W 073°10'0 0.0
2016-Aug-12 13:32N 46°01' W 073°10'0 0.0
2016-Aug-12 12:32N 46°01' W 073°10'0 0.0
2016-Aug-12 11:32N 46°01' W 073°10'0 0.0
2016-Aug-12 10:32N 46°01' W 073°10'0 0.0
2016-Aug-12 09:26N 46°01' W 073°10'0 0.0
2016-Aug-12 08:32N 46°01' W 073°10'0 0.0
2016-Aug-12 07:32N 46°01' W 073°10'0 0.0
2016-Aug-12 06:32N 46°01' W 073°10'0 0.0
2016-Aug-12 05:32N 46°01' W 073°10'0 0.0
2016-Aug-12 04:32N 46°01' W 073°10'0 0.0
2016-Aug-12 03:32N 46°01' W 073°10'0 0.0
2016-Aug-12 02:26N 46°01' W 073°10'0 0.0
2016-Aug-12 01:32N 46°01' W 073°10'0 0.0
2016-Aug-12 00:32N 46°01' W 073°10'0 0.0
2016-Aug-11 23:32N 46°01' W 073°10'0 0.0
2016-Aug-11 22:32N 46°01' W 073°10'0 0.0
2016-Aug-11 21:26N 46°01' W 073°10'0 0.0
2016-Aug-11 20:32N 46°01' W 073°10'0 0.0
2016-Aug-11 19:32N 46°01' W 073°10'0 0.0
2016-Aug-11 18:32N 46°01' W 073°10'0 0.0
2016-Aug-11 17:26N 46°01' W 073°10'0 0.0
2016-Aug-11 16:32N 46°01' W 073°10'0 0.0
2016-Aug-11 15:32N 46°01' W 073°10'0 0.0
2016-Aug-11 14:32N 46°01' W 073°10'0 0.0
2016-Aug-11 13:32N 46°01' W 073°10'0 0.0
2016-Aug-11 12:32N 46°01' W 073°10'0 0.0
2016-Aug-11 11:32N 46°01' W 073°10'0 0.0
2016-Aug-11 10:32N 46°01' W 073°10'0 0.0
2016-Aug-11 09:32N 46°01' W 073°10'0 0.0
2016-Aug-11 08:32N 46°01' W 073°10'0 0.0
2016-Aug-11 07:32N 46°01' W 073°10'0 0.0
2016-Aug-11 06:32N 46°01' W 073°10'0 0.0
2016-Aug-11 05:26N 46°01' W 073°10'0 0.0
2016-Aug-11 04:26N 46°01' W 073°10'0 0.0
2016-Aug-11 03:32N 46°01' W 073°10'0 0.4
2016-Aug-11 02:33N 46°01' W 073°10'5 5.0
2016-Aug-11 01:33N 46°04' W 073°04'8 7.8
2016-Aug-11 00:33N 46°09' W 072°57'  

Dump ship's entire track history